Time;durP1;ratioP1;P1;durP2;ratioP2;P2;SDS_P1;SDS_P2;PMS_P1;PMS_P2;Temp;Humidity;BMP_temperature;BMP_pressure;BME280_temperature;BME280_humidity;BME280_pressure;Samples;Min_cycle;Max_cycle;Signal;HPM_P1;HPM_P2
2021/03/16 00:00:59;;;;;;;6.23;3.20;;;4.60;99.90;;;2.70;100.00;99778.88;4925588;28;100393;-63
2021/03/16 00:03:44;;;;;;;4.73;3.50;;;4.60;99.90;;;2.68;100.00;99785.22;4924352;28;100121;-63
2021/03/16 00:06:21;;;;;;;4.97;4.47;;;4.60;99.90;;;2.65;100.00;99781.03;4926769;28;100088;-64
2021/03/16 00:08:48;;;;;;;8.47;4.53;;;4.60;99.90;;;2.66;100.00;99787.16;4926463;28;101893;-64
2021/03/16 00:11:15;;;;;;;5.73;4.90;;;4.50;99.90;;;2.64;100.00;99784.63;4926037;28;100881;-63
2021/03/16 00:13:41;;;;;;;6.90;4.27;;;4.60;99.90;;;2.61;100.00;99790.13;4927541;28;100200;-64
2021/03/16 00:16:08;;;;;;;6.17;3.87;;;4.60;99.90;;;2.62;100.00;99793.63;4927202;28;100303;-63
2021/03/16 00:18:35;;;;;;;4.80;4.30;;;5.10;99.90;;;2.65;100.00;99796.88;4926936;28;100852;-64
2021/03/16 00:21:02;;;;;;;5.00;4.27;;;4.40;99.90;;;2.66;100.00;99795.06;4925935;28;101415;-64
2021/03/16 00:23:28;;;;;;;6.13;4.10;;;4.50;99.90;;;2.63;100.00;99801.44;4926742;28;100241;-64
2021/03/16 00:25:56;;;;;;;6.67;4.67;;;4.50;99.90;;;2.63;100.00;99806.72;4926265;28;100259;-65
2021/03/16 00:28:22;;;;;;;5.03;3.27;;;4.60;99.90;;;2.66;100.00;99803.84;4927045;28;100903;-63
2021/03/16 00:30:49;;;;;;;5.33;4.10;;;4.70;99.90;;;2.66;100.00;99803.00;4925034;28;100763;-64
2021/03/16 00:33:15;;;;;;;7.13;4.57;;;4.60;99.90;;;2.65;100.00;99810.06;4926250;28;100143;-65
2021/03/16 00:35:41;;;;;;;6.50;4.63;;;4.50;99.90;;;2.64;100.00;99807.56;4926485;28;100125;-65
2021/03/16 00:38:08;;;;;;;6.10;4.27;;;4.50;99.90;;;2.65;100.00;99811.88;4925648;28;100764;-63
2021/03/16 00:40:34;;;;;;;8.13;4.00;;;4.60;99.90;;;2.65;100.00;99817.16;4925766;28;101238;-63
2021/03/16 00:43:02;;;;;;;4.17;3.70;;;4.50;99.90;;;2.67;100.00;99808.16;4928119;28;100133;-65
2021/03/16 00:45:28;;;;;;;4.53;3.90;;;4.40;99.90;;;2.67;100.00;99820.53;4926923;28;100382;-64
2021/03/16 00:47:55;;;;;;;5.73;4.40;;;4.40;99.90;;;2.65;100.00;99815.34;4940684;28;101689;-64
2021/03/16 00:50:22;;;;;;;4.70;3.90;;;4.50;99.90;;;2.66;100.00;99818.84;4924293;28;102571;-64
2021/03/16 00:52:48;;;;;;;5.77;3.87;;;4.60;99.90;;;2.64;100.00;99818.13;4927034;28;100246;-64
2021/03/16 00:55:15;;;;;;;5.63;3.87;;;4.50;99.90;;;2.66;100.00;99818.84;4921708;28;100297;-64
2021/03/16 00:57:41;;;;;;;5.20;3.80;;;4.60;99.90;;;2.65;100.00;99830.38;4921032;28;101801;-64
2021/03/16 01:00:11;;;;;;;6.73;4.37;;;4.50;99.90;;;2.65;100.00;99831.22;4926114;28;100444;-63
2021/03/16 01:02:37;;;;;;;7.60;4.30;;;4.60;99.90;;;2.65;100.00;99839.13;4925759;28;100311;-64
2021/03/16 01:05:05;;;;;;;5.00;4.10;;;4.60;99.90;;;2.65;100.00;99825.94;4926654;28;100324;-64
2021/03/16 01:07:32;;;;;;;6.87;4.03;;;4.50;99.90;;;2.65;100.00;99830.38;4925538;28;101540;-64
2021/03/16 01:09:58;;;;;;;5.97;4.50;;;4.60;99.90;;;2.64;100.00;99834.81;4926186;28;100738;-63
2021/03/16 01:12:24;;;;;;;4.80;4.23;;;4.60;99.90;;;2.66;100.00;99834.69;4926259;28;100351;-63
2021/03/16 01:14:51;;;;;;;5.87;3.93;;;4.60;99.90;;;2.64;100.00;99837.44;4925819;28;100136;-63
2021/03/16 01:17:18;;;;;;;5.30;3.80;;;4.60;99.90;;;2.65;100.00;99838.28;4925310;28;101223;-64
2021/03/16 01:19:45;;;;;;;4.67;3.57;;;4.60;99.90;;;2.68;100.00;99838.06;4925514;28;100716;-64
2021/03/16 01:22:11;;;;;;;5.03;4.03;;;4.80;99.90;;;2.67;100.00;99844.31;4925489;28;100076;-64
2021/03/16 01:24:38;;;;;;;4.37;3.97;;;4.80;99.90;;;2.67;100.00;99839.88;4925222;28;100347;-63
2021/03/16 01:27:05;;;;;;;3.77;3.33;;;4.60;99.90;;;2.70;100.00;99838.78;4925178;28;100734;-63
2021/03/16 01:29:31;;;;;;;4.83;4.07;;;4.60;99.90;;;2.70;100.00;99852.00;4924977;28;101269;-63
2021/03/16 01:31:58;;;;;;;6.33;4.50;;;4.60;99.90;;;2.69;100.00;99852.94;4925060;28;100254;-64
2021/03/16 01:34:25;;;;;;;7.33;4.10;;;4.50;99.90;;;2.69;100.00;99851.16;4925414;28;100441;-63
2021/03/16 01:36:52;;;;;;;4.60;4.20;;;4.60;99.90;;;2.71;100.00;99856.31;4924537;28;101137;-63
2021/03/16 01:39:18;;;;;;;4.30;3.50;;;4.60;99.90;;;2.72;100.00;99861.47;4925820;28;100500;-63
2021/03/16 01:41:45;;;;;;;6.07;4.00;;;4.70;99.90;;;2.73;100.00;99864.94;4925174;28;100118;-63
2021/03/16 01:44:11;;;;;;;4.60;3.33;;;4.70;99.90;;;2.71;100.00;99861.59;4925304;28;100233;-62
2021/03/16 01:46:38;;;;;;;4.03;3.63;;;5.70;99.90;;;2.70;100.00;99860.75;4925111;28;101853;-62
2021/03/16 01:49:04;;;;;;;4.20;2.80;;;4.60;99.90;;;2.70;100.00;99855.47;4925126;28;101457;-62
2021/03/16 01:51:32;;;;;;;6.97;3.50;;;4.60;99.90;;;2.73;100.00;99862.31;4925502;28;100178;-62
2021/03/16 01:53:58;;;;;;;3.90;3.00;;;4.70;99.90;;;2.73;100.00;99865.78;4926050;28;100140;-62
2021/03/16 01:56:25;;;;;;;7.53;3.77;;;4.70;99.90;;;2.70;100.00;99854.63;4925663;28;101336;-62
2021/03/16 01:59:17;;;;;;;3.17;2.87;;;4.60;99.90;;;2.70;100.00;99867.84;4923177;28;100298;-61
2021/03/16 02:02:03;;;;;;;4.30;3.30;;;4.60;99.90;;;2.69;100.00;99864.38;4927567;28;100238;-62
2021/03/16 02:04:48;;;;;;;5.60;3.80;;;4.70;99.90;;;2.66;100.00;99872.53;4922552;28;100243;-62
2021/03/16 02:07:42;;;;;;;3.63;3.23;;;4.50;99.90;;;2.68;100.00;99872.41;4925964;28;100821;-62
2021/03/16 02:10:36;;;;;;;4.03;3.33;;;4.70;99.90;;;2.65;100.00;99875.28;4922546;28;100530;-63
2021/03/16 02:13:30;;;;;;;5.07;3.27;;;4.70;99.90;;;2.65;100.00;99883.19;4922240;28;100038;-62
2021/03/16 02:16:19;;;;;;;3.83;3.03;;;4.60;99.90;;;2.60;100.00;99880.09;4923498;28;100345;-63
2021/03/16 02:19:13;;;;;;;4.40;3.30;;;4.70;99.90;;;2.56;100.00;99884.75;4922287;28;100751;-62
2021/03/16 02:22:00;;;;;;;3.03;2.70;;;4.60;99.90;;;2.57;100.00;99882.94;4923436;28;100476;-61
2021/03/16 02:25:06;;;;;;;5.50;3.47;;;4.70;99.90;;;2.50;100.00;99888.69;4922079;28;99974;-63
2021/03/16 02:28:11;;;;;;;4.17;3.77;;;4.60;99.90;;;2.51;100.00;99886.88;4922685;28;100071;-62
2021/03/16 02:31:00;;;;;;;3.80;2.73;;;4.80;99.90;;;2.44;100.00;99890.97;4922849;28;100510;-62
2021/03/16 02:33:47;;;;;;;4.20;3.03;;;4.70;99.90;;;2.41;100.00;99897.31;4921868;28;100603;-62
2021/03/16 02:36:33;;;;;;;3.77;3.03;;;5.30;99.90;;;2.37;100.00;99900.28;4924198;28;100270;-63
2021/03/16 02:39:20;;;;;;;3.67;3.00;;;4.50;99.90;;;2.30;100.00;99892.00;4922439;28;100319;-62
2021/03/16 02:42:08;;;;;;;3.37;2.23;;;4.40;99.90;;;2.24;100.00;99889.81;4924712;28;100648;-62
2021/03/16 02:44:54;;;;;;;3.00;2.60;;;4.40;99.90;;;2.23;100.00;99893.41;4921283;28;100054;-63
2021/03/16 02:47:41;;;;;;;3.20;2.70;;;4.60;99.90;;;2.20;100.00;99898.09;4925131;28;100207;-63
2021/03/16 02:50:27;;;;;;;3.90;2.40;;;4.20;99.90;;;2.17;100.00;99900.00;4921611;28;100352;-62
2021/03/16 02:53:13;;;;;;;3.87;2.87;;;4.50;99.90;;;2.16;100.00;99906.22;4920577;28;101436;-62
2021/03/16 02:55:59;;;;;;;3.60;3.20;;;4.10;99.90;;;2.15;100.00;99903.69;4925598;28;100403;-63
2021/03/16 02:58:46;;;;;;;3.83;3.07;;;4.20;99.90;;;2.13;100.00;99914.38;4924946;28;99911;-62
2021/03/16 03:01:35;;;;;;;2.67;2.27;;;4.20;99.90;;;2.07;100.00;99917.47;4926807;28;99996;-62
2021/03/16 03:04:22;;;;;;;5.27;2.33;;;4.20;99.90;;;2.03;100.00;99918.66;4924874;28;100641;-60
2021/03/16 03:07:09;;;;;;;2.57;2.03;;;4.10;99.90;;;2.05;100.00;99924.66;4926972;28;100364;-62
2021/03/16 03:09:55;;;;;;;2.93;2.20;;;4.00;99.90;;;2.02;100.00;99932.78;4925291;28;100209;-62
2021/03/16 03:12:40;;;;;;;2.77;2.53;;;4.10;99.90;;;1.98;100.00;99935.78;4924886;28;100025;-61
2021/03/16 03:15:26;;;;;;;4.27;2.37;;;4.40;99.90;;;1.98;100.00;99935.78;4924761;28;100668;-61
2021/03/16 03:18:11;;;;;;;3.23;2.33;;;3.80;99.90;;;1.95;100.00;99936.84;4924882;28;100694;-61
2021/03/16 03:20:57;;;;;;;4.87;2.20;;;3.90;99.90;;;1.93;100.00;99945.81;4925859;28;100077;-59
2021/03/16 03:23:49;;;;;;;2.70;2.50;;;3.70;99.90;;;1.94;100.00;99950.16;4924875;28;100050;-62
2021/03/16 03:26:43;;;;;;;3.27;2.87;;;3.80;99.90;;;1.96;100.00;99958.81;4931157;28;100675;-60
2021/03/16 03:29:31;;;;;;;4.03;3.17;;;3.80;99.90;;;1.92;100.00;99952.06;4924306;28;100031;-60
2021/03/16 03:32:22;;;;;;;3.73;3.33;;;3.90;99.90;;;1.91;100.00;99955.66;4927747;28;100069;-60
2021/03/16 03:35:08;;;;;;;3.20;2.90;;;4.00;99.90;;;1.91;100.00;99968.84;4924447;28;100173;-60
2021/03/16 03:37:56;;;;;;;4.27;3.40;;;3.80;99.90;;;1.90;100.00;99964.50;4925510;28;100669;-62
2021/03/16 03:40:41;;;;;;;5.00;3.70;;;3.70;99.90;;;1.90;100.00;99977.69;4923901;28;100230;-61
2021/03/16 03:43:28;;;;;;;4.13;3.73;;;3.80;99.90;;;1.91;100.00;99982.03;4924600;28;99959;-60
2021/03/16 03:46:17;;;;;;;4.53;2.90;;;3.80;99.90;;;1.82;100.00;99980.91;4925700;28;100324;-60
2021/03/16 03:49:05;;;;;;;3.57;2.93;;;3.80;99.90;;;1.77;100.00;99994.41;4924384;28;100074;-62
2021/03/16 03:51:51;;;;;;;3.47;2.50;;;3.90;99.90;;;1.66;100.00;99988.22;4925726;28;100247;-60
2021/03/16 03:54:39;;;;;;;3.43;2.17;;;3.80;99.90;;;1.64;100.00;99984.84;4924393;28;100139;-61
2021/03/16 03:57:26;;;;;;;2.90;2.67;;;3.70;99.90;;;1.67;100.00;99988.09;4926555;28;100164;-59
2021/03/16 04:00:14;;;;;;;12.90;3.17;;;4.00;99.90;;;1.63;100.00;100002.47;4924018;28;100464;-61
2021/03/16 04:03:00;;;;;;;3.17;2.30;;;3.70;99.90;;;1.56;100.00;100008.28;4904259;28;100230;-60
2021/03/16 04:05:49;;;;;;;47.07;6.13;;;3.60;99.90;;;1.55;100.00;100007.44;4905329;28;99902;-61
2021/03/16 04:08:35;;;;;;;5.53;2.50;;;3.70;99.90;;;1.44;100.00;100016.09;4904129;28;99977;-62
2021/03/16 04:11:22;;;;;;;4.37;2.00;;;3.50;99.90;;;1.39;100.00;100017.34;4906570;28;100330;-62
2021/03/16 04:14:08;;;;;;;2.43;2.17;;;3.70;99.90;;;1.36;100.00;100017.59;4924097;28;100497;-62
2021/03/16 04:16:54;;;;;;;4.83;2.27;;;3.70;99.90;;;1.35;100.00;100024.66;4926199;28;100371;-61
2021/03/16 04:19:39;;;;;;;3.27;2.93;;;3.60;99.90;;;1.41;100.00;100023.38;4924032;28;100215;-61
2021/03/16 04:22:25;;;;;;;3.73;2.90;;;4.40;99.90;;;1.43;100.00;100027.59;4926896;28;100165;-61
2021/03/16 04:25:11;;;;;;;4.07;3.17;;;3.40;99.90;;;1.49;100.00;100030.75;4924191;28;100280;-62
2021/03/16 04:27:58;;;;;;;3.33;3.03;;;3.30;99.90;;;1.49;100.00;100033.38;4929557;28;100089;-62
2021/03/16 04:30:43;;;;;;;11.20;3.80;;;3.50;99.90;;;1.53;100.00;100034.84;4924439;28;100093;-61
2021/03/16 04:33:28;;;;;;;6.70;3.80;;;3.50;99.90;;;1.53;100.00;100030.44;4923199;28;100297;-61
2021/03/16 04:36:13;;;;;;;8.70;4.23;;;3.60;99.90;;;1.56;100.00;100040.78;4924085;28;100413;-60
2021/03/16 04:38:58;;;;;;;8.33;4.27;;;3.40;99.90;;;1.55;100.00;100041.72;4923923;28;100073;-62
2021/03/16 04:41:44;;;;;;;6.13;4.57;;;4.30;99.90;;;1.58;100.00;100046.78;4924918;28;100247;-62
2021/03/16 04:44:30;;;;;;;6.37;4.70;;;3.40;99.90;;;1.60;100.00;100052.81;4923569;28;100380;-61
2021/03/16 04:47:15;;;;;;;6.33;4.67;;;3.60;99.90;;;1.63;100.00;100057.00;4926110;28;100391;-61
2021/03/16 04:50:00;;;;;;;8.97;5.10;;;3.50;99.90;;;1.64;100.00;100061.31;4923703;28;100328;-61
2021/03/16 04:52:45;;;;;;;4.87;3.53;;;3.60;99.90;;;1.62;100.00;100057.94;4923643;28;100518;-63
2021/03/16 04:55:31;;;;;;;8.00;4.13;;;4.20;99.90;;;1.64;100.00;100064.81;4924331;28;100371;-60
2021/03/16 04:58:16;;;;;;;7.13;4.60;;;3.70;99.90;;;1.66;100.00;100070.81;4924024;28;100397;-61
2021/03/16 05:01:03;;;;;;;4.40;3.83;;;3.60;99.90;;;1.67;100.00;100072.50;4924569;28;100396;-62
2021/03/16 05:03:48;;;;;;;9.30;4.20;;;3.80;99.90;;;1.67;100.00;100075.16;4922646;28;100243;-61
2021/03/16 05:06:33;;;;;;;5.93;3.87;;;4.50;99.90;;;1.62;100.00;100074.63;4924284;28;100729;-61
2021/03/16 05:09:18;;;;;;;6.53;4.00;;;3.40;99.90;;;1.64;100.00;100080.63;4923248;28;100254;-62
2021/03/16 05:12:06;;;;;;;5.50;4.03;;;3.50;99.90;;;1.66;100.00;100089.28;4925303;28;100030;-62
2021/03/16 05:14:51;;;;;;;5.07;3.93;;;3.60;99.90;;;1.64;100.00;100093.81;4922963;28;100369;-62
2021/03/16 05:17:37;;;;;;;5.60;3.93;;;4.70;99.90;;;1.66;100.00;100088.44;4925003;28;100354;-62
2021/03/16 05:20:22;;;;;;;3.73;3.20;;;3.60;99.90;;;1.64;100.00;100095.59;4923161;28;100696;-62
2021/03/16 05:23:07;;;;;;;3.93;3.27;;;3.60;99.90;;;1.64;100.00;100096.44;4904036;28;99973;-62
2021/03/16 05:25:52;;;;;;;4.47;3.30;;;3.50;99.90;;;1.63;100.00;100104.47;4904192;28;100207;-62
2021/03/16 05:28:38;;;;;;;4.10;3.20;;;3.50;99.90;;;1.60;100.00;100104.69;4902718;28;100586;-61
2021/03/16 05:31:23;;;;;;;4.20;3.10;;;3.60;99.90;;;1.60;100.00;100113.47;4910126;28;100522;-62
2021/03/16 05:34:09;;;;;;;6.07;3.63;;;3.40;99.90;;;1.57;100.00;100116.31;4915717;28;100388;-62
2021/03/16 05:36:54;;;;;;;5.70;3.20;;;3.50;99.90;;;1.58;100.00;100131.19;4924731;28;100646;-62
2021/03/16 05:39:40;;;;;;;6.50;3.57;;;4.80;99.90;;;1.58;100.00;100132.97;4921221;28;100530;-61
2021/03/16 05:42:26;;;;;;;3.30;3.00;;;4.10;99.90;;;1.60;100.00;100137.19;4922087;28;100430;-62
2021/03/16 05:45:13;;;;;;;5.47;4.07;;;3.50;99.90;;;1.58;100.00;100141.72;4920427;28;100397;-63
2021/03/16 05:48:00;;;;;;;4.63;3.50;;;3.50;99.90;;;1.59;100.00;100137.28;4919442;28;100235;-62
2021/03/16 05:50:45;;;;;;;5.83;3.50;;;3.50;99.90;;;1.58;100.00;100146.16;4915984;28;100344;-62
2021/03/16 05:53:31;;;;;;;5.70;2.80;;;3.30;99.90;;;1.57;100.00;100147.09;4919900;28;100189;-62
2021/03/16 05:56:17;;;;;;;5.30;3.57;;;3.50;99.90;;;1.59;100.00;100150.47;4921665;28;100268;-62
2021/03/16 05:59:03;;;;;;;5.80;3.70;;;3.60;99.90;;;1.61;100.00;100156.47;4919777;28;100036;-62
2021/03/16 06:01:48;;;;;;;7.47;3.10;;;3.60;99.90;;;1.62;100.00;100158.16;4924023;28;101251;-61
2021/03/16 06:04:34;;;;;;;3.90;3.17;;;4.60;99.90;;;1.58;100.00;100149.63;4921981;28;100214;-62
2021/03/16 06:07:20;;;;;;;5.13;3.10;;;3.60;99.90;;;1.59;100.00;100179.50;4924807;28;100214;-59
2021/03/16 06:10:07;;;;;;;3.53;2.50;;;3.60;99.90;;;1.60;100.00;100174.13;4922072;28;100291;-63
2021/03/16 06:12:52;;;;;;;3.13;2.57;;;3.50;99.90;;;1.58;100.00;100185.72;4921740;28;100482;-61
2021/03/16 06:15:37;;;;;;;4.67;2.83;;;3.70;99.90;;;1.65;100.00;100184.34;4922175;28;100255;-62
2021/03/16 06:18:27;;;;;;;6.50;3.33;;;3.50;99.90;;;1.67;100.00;100193.00;4922814;28;100254;-61
2021/03/16 06:21:17;;;;;;;3.97;2.47;;;3.60;99.90;;;1.65;100.00;100193.09;4923273;28;100343;-62
2021/03/16 06:24:06;;;;;;;4.23;2.90;;;3.60;99.90;;;1.69;100.00;100189.31;4921989;28;100223;-61
2021/03/16 06:26:51;;;;;;;3.93;2.57;;;3.60;99.90;;;1.75;100.00;100201.22;4923394;28;100359;-62
2021/03/16 06:29:41;;;;;;;6.17;2.97;;;4.60;99.90;;;1.76;100.00;100201.13;4925501;28;100277;-62
2021/03/16 06:32:33;;;;;;;5.33;2.60;;;3.70;99.90;;;1.74;100.00;100196.88;4928526;28;100170;-62
2021/03/16 06:35:18;;;;;;;2.87;2.30;;;3.70;99.90;;;1.74;100.00;100203.00;4925657;28;100498;-61
2021/03/16 06:38:06;;;;;;;4.93;2.47;;;3.80;99.90;;;1.64;100.00;100209.00;4927241;28;100121;-62
2021/03/16 06:40:53;;;;;;;5.43;3.17;;;3.90;99.90;;;1.44;100.00;100215.63;4927290;28;100394;-60
2021/03/16 06:43:39;;;;;;;3.27;2.97;;;3.60;99.90;;;1.47;100.00;100214.59;4925194;28;100114;-60
2021/03/16 06:46:29;;;;;;;3.37;2.80;;;3.70;99.90;;;1.40;100.00;100222.91;4926901;28;100608;-61
2021/03/16 06:49:17;;;;;;;4.43;2.93;;;3.70;99.90;;;1.47;100.00;100241.81;4925040;28;100774;-62
2021/03/16 06:52:11;;;;;;;4.83;2.80;;;3.60;99.90;;;1.46;100.00;100242.75;4927316;28;100061;-62
2021/03/16 06:54:56;;;;;;;4.93;2.77;;;3.50;99.90;;;1.49;100.00;100249.59;4925049;28;99970;-60
2021/03/16 06:57:42;;;;;;;3.97;2.50;;;3.60;99.90;;;1.52;100.00;100239.69;4924606;28;100317;-61
2021/03/16 07:00:27;;;;;;;4.90;2.80;;;3.50;99.90;;;1.59;100.00;100248.91;4925113;28;100588;-60
2021/03/16 07:03:13;;;;;;;4.07;2.07;;;3.70;99.90;;;1.57;100.00;100258.69;4925160;28;100562;-58
2021/03/16 07:06:10;;;;;;;5.53;2.50;;;3.70;99.90;;;1.58;100.00;100247.22;4925650;28;100218;-61
2021/03/16 07:08:58;;;;;;;2.80;2.60;;;3.70;99.90;;;1.56;100.00;100258.81;4924939;28;100426;-61
2021/03/16 07:11:47;;;;;;;2.30;2.10;;;3.60;99.90;;;1.52;100.00;100258.16;4926203;28;100633;-60
2021/03/16 07:14:34;;;;;;;6.47;3.03;;;3.60;99.90;;;1.54;100.00;100273.88;4924859;28;100587;-59
2021/03/16 07:17:19;;;;;;;4.10;2.57;;;3.40;99.90;;;1.54;100.00;100279.16;4925763;28;100306;-61
2021/03/16 07:20:07;;;;;;;4.77;2.80;;;3.50;99.90;;;1.55;100.00;100284.31;4923446;28;100769;-61
2021/03/16 07:22:57;;;;;;;5.90;3.00;;;3.50;99.90;;;1.55;100.00;100279.06;4923615;28;100624;-60
2021/03/16 07:25:43;;;;;;;4.60;2.90;;;3.60;99.90;;;1.58;100.00;100286.78;4909977;28;100346;-60
2021/03/16 07:28:29;;;;;;;5.83;2.70;;;3.50;99.90;;;1.54;100.00;100290.53;4924816;28;100274;-59
2021/03/16 07:31:15;;;;;;;5.50;2.40;;;3.40;99.90;;;1.54;100.00;100287.91;4924752;28;100692;-58
2021/03/16 07:34:04;;;;;;;4.33;2.90;;;3.40;99.90;;;1.60;100.00;100299.84;4924994;28;100576;-60
2021/03/16 07:36:51;;;;;;;4.27;3.10;;;3.40;99.90;;;1.53;100.00;100299.41;4926496;28;100498;-62
2021/03/16 07:39:37;;;;;;;5.93;3.43;;;3.80;99.90;;;1.51;100.00;100311.84;4924402;28;100170;-60
2021/03/16 07:42:22;;;;;;;5.90;3.80;;;4.50;99.90;;;1.51;100.00;100297.81;4927334;28;100565;-60
2021/03/16 07:45:08;;;;;;;4.17;3.13;;;4.20;99.90;;;1.56;100.00;100311.53;4924928;28;100491;-61
2021/03/16 07:47:54;;;;;;;4.50;3.07;;;3.40;99.90;;;1.54;100.00;100305.53;4924524;28;100083;-60
2021/03/16 07:50:39;;;;;;;6.27;3.17;;;3.50;99.90;;;1.53;100.00;100303.81;4924308;28;100136;-61
2021/03/16 07:53:26;;;;;;;7.40;3.67;;;3.50;99.90;;;1.57;100.00;100307.97;4923383;28;100835;-61
2021/03/16 07:56:13;;;;;;;4.10;3.70;;;3.90;99.90;;;1.58;100.00;100318.41;4924253;28;100534;-60
2021/03/16 07:58:58;;;;;;;7.00;3.63;;;3.20;99.90;;;1.62;100.00;100321.69;4924114;28;100516;-60
2021/03/16 08:01:49;;;;;;;5.53;3.33;;;3.40;99.90;;;1.71;100.00;100326.38;4925949;28;100339;-60
2021/03/16 08:04:36;;;;;;;8.10;3.33;;;3.40;99.90;;;1.67;100.00;100320.44;4924923;28;100662;-61
2021/03/16 08:07:23;;;;;;;5.87;3.63;;;4.80;99.90;;;1.72;100.00;100328.91;4926973;28;100982;-60
2021/03/16 08:10:11;;;;;;;6.67;3.07;;;4.70;99.90;;;1.80;100.00;100334.50;4924882;28;100011;-60
2021/03/16 08:13:01;;;;;;;4.43;2.93;;;3.60;99.90;;;1.91;100.00;100338.22;4923844;28;100133;-61
2021/03/16 08:15:49;;;;;;;5.33;3.30;;;3.70;99.90;;;1.93;100.00;100334.56;4923841;28;100197;-62
2021/03/16 08:18:34;;;;;;;5.37;3.00;;;3.50;99.90;;;2.04;100.00;100345.22;4923762;28;100063;-61
2021/03/16 08:21:20;;;;;;;3.03;2.30;;;4.60;99.90;;;2.00;100.00;100342.88;4925004;28;100166;-62
2021/03/16 08:24:08;;;;;;;5.00;3.33;;;4.00;99.90;;;2.11;100.00;100340.38;4924491;28;100113;-60
2021/03/16 08:26:55;;;;;;;4.13;2.73;;;3.80;99.90;;;2.16;100.00;100351.47;4925881;28;100263;-62
2021/03/16 08:29:44;;;;;;;6.50;2.70;;;3.80;99.90;;;2.22;100.00;100344.97;4923737;28;100573;-61
2021/03/16 08:32:29;;;;;;;3.90;2.77;;;5.20;99.90;;;2.28;100.00;100361.22;4927025;28;100020;-61
2021/03/16 08:35:17;;;;;;;4.80;2.80;;;5.10;99.90;;;2.33;100.00;100366.19;4923756;28;100059;-61
2021/03/16 08:38:07;;;;;;;6.00;2.83;;;4.10;99.90;;;2.36;100.00;100363.31;4925782;28;100318;-61
2021/03/16 08:41:05;;;;;;;7.37;3.17;;;4.30;99.90;;;2.41;100.00;100374.44;4923475;28;100377;-61
2021/03/16 08:43:52;;;;;;;5.67;2.53;;;4.80;99.90;;;2.34;100.00;100359.97;4923519;28;100053;-62
2021/03/16 08:46:38;;;;;;;5.67;3.30;;;5.60;99.90;;;2.44;100.00;100372.44;4924992;28;101543;-61
2021/03/16 08:49:25;;;;;;;4.93;2.63;;;4.40;99.90;;;2.45;100.00;100376.78;4922849;28;100373;-60
2021/03/16 08:52:19;;;;;;;4.07;2.60;;;4.80;99.90;;;2.56;100.00;100388.41;4924149;28;100351;-61
2021/03/16 08:55:06;;;;;;;5.50;2.40;;;4.30;99.90;;;2.53;100.00;100385.00;4923310;28;101679;-61
2021/03/16 08:57:53;;;;;;;4.23;2.50;;;4.50;99.90;;;2.49;100.00;100388.78;4923965;28;100306;-60
2021/03/16 09:00:39;;;;;;;4.50;2.53;;;4.50;99.90;;;2.46;100.00;100391.66;4923370;28;100700;-61
2021/03/16 09:03:29;;;;;;;4.93;2.27;;;4.60;99.90;;;2.42;100.00;100384.91;4924291;28;100156;-62
2021/03/16 09:06:18;;;;;;;4.03;2.90;;;4.60;99.90;;;2.55;100.00;100384.06;4924066;28;100424;-60
2021/03/16 09:09:05;;;;;;;4.63;2.53;;;4.50;99.90;;;2.63;100.00;100387.84;4922666;28;100192;-60
2021/03/16 09:11:52;;;;;;;4.33;2.73;;;4.60;99.90;;;2.81;100.00;100404.25;4924895;28;100584;-60
2021/03/16 09:14:37;;;;;;;6.60;2.80;;;4.70;99.90;;;2.93;100.00;100392.84;4922182;28;100375;-61
2021/03/16 09:17:22;;;;;;;6.37;2.93;;;4.80;99.90;;;3.05;100.00;100397.25;4926626;28;100161;-60
2021/03/16 09:20:11;;;;;;;5.83;2.33;;;5.10;99.90;;;3.09;100.00;100397.91;4922678;28;100202;-60
2021/03/16 09:22:58;;;;;;;2.53;1.43;;;5.00;99.90;;;3.31;100.00;100381.34;4921512;28;100981;-60
2021/03/16 09:25:45;;;;;;;4.37;2.37;;;5.30;99.90;;;3.52;100.00;100400.97;4921862;28;100512;-60
2021/03/16 09:28:32;;;;;;;4.83;2.20;;;5.50;99.90;;;3.77;100.00;100392.94;4919782;28;100226;-60
2021/03/16 09:31:20;;;;;;;4.30;2.47;;;5.80;99.90;;;3.75;100.00;100404.59;4919749;28;100435;-61
2021/03/16 09:34:07;;;;;;;5.33;2.00;;;6.00;99.90;;;3.72;100.00;100408.28;4921983;28;100521;-59
2021/03/16 09:37:02;;;;;;;5.57;2.10;;;6.20;99.90;;;3.64;100.00;100404.53;4924109;28;100400;-58
2021/03/16 09:39:32;;;;;;;3.87;2.27;;;6.30;99.90;;;3.56;100.00;100394.50;4919482;28;100156;-60
2021/03/16 09:42:15;;;;;;;4.00;2.03;;;6.30;99.90;;;3.71;100.00;100405.78;4923060;28;100018;-59
2021/03/16 09:44:46;;;;;;;4.97;2.10;;;6.40;99.90;;;3.51;100.00;100405.41;4924544;28;100859;-59
2021/03/16 09:47:23;;;;;;;5.57;2.43;;;6.40;99.90;;;3.48;100.00;100402.97;4924478;28;102067;-59
2021/03/16 09:49:50;;;;;;;2.63;2.23;;;6.30;99.90;;;3.49;100.00;100395.88;4925753;28;100273;-60
2021/03/16 09:52:16;;;;;;;3.97;2.50;;;6.20;99.90;;;3.38;100.00;100404.59;4925286;28;100301;-61
2021/03/16 09:54:45;;;;;;;9.03;2.70;;;6.30;99.90;;;3.56;100.00;100405.09;4924772;28;102089;-61
2021/03/16 09:57:15;;;;;;;4.73;2.33;;;6.30;99.90;;;3.78;100.00;100410.50;4921887;28;101436;-60
2021/03/16 09:59:44;;;;;;;3.67;2.10;;;6.40;99.90;;;3.99;100.00;100416.03;4931155;28;100054;-59
2021/03/16 10:02:12;;;;;;;2.50;2.30;;;6.10;99.90;;;4.23;100.00;100418.66;4926632;28;100200;-60
2021/03/16 10:04:47;;;;;;;3.67;2.17;;;6.60;99.90;;;4.26;100.00;100410.47;4925471;28;100959;-61
2021/03/16 10:07:25;;;;;;;3.93;1.87;;;6.70;99.90;;;4.03;100.00;100420.13;4924907;28;100553;-59
2021/03/16 10:09:52;;;;;;;2.43;1.93;;;6.90;99.90;;;3.77;100.00;100419.41;4925451;28;100250;-60
2021/03/16 10:12:21;;;;;;;2.20;1.70;;;6.70;99.90;;;3.70;100.00;100425.25;4925094;28;100286;-59
2021/03/16 10:14:51;;;;;;;2.07;1.83;;;6.80;99.90;;;3.73;100.00;100428.50;4924581;28;101574;-60
2021/03/16 10:17:25;;;;;;;3.43;1.93;;;6.80;99.90;;;4.11;100.00;100430.16;4924821;28;100606;-60
2021/03/16 10:19:55;;;;;;;3.13;1.70;;;6.90;99.90;;;3.93;100.00;100440.31;4906862;28;100367;-60
2021/03/16 10:22:28;;;;;;;4.50;2.13;;;7.00;99.90;;;4.17;100.00;100438.50;4924551;28;100195;-60
2021/03/16 10:24:56;;;;;;;2.97;1.37;;;7.10;99.90;;;3.85;100.00;100434.72;4924556;28;101597;-60
2021/03/16 10:27:28;;;;;;;4.80;2.10;;;7.00;99.90;;;3.83;100.00;100449.88;4924822;28;100524;-60
2021/03/16 10:29:56;;;;;;;3.50;1.60;;;7.00;99.90;;;3.89;100.00;100452.91;4924379;28;100139;-61
2021/03/16 10:32:22;;;;;;;3.93;2.40;;;6.70;99.90;;;4.01;100.00;100443.22;4924007;28;100101;-60
2021/03/16 10:34:49;;;;;;;3.87;1.90;;;7.00;99.90;;;3.95;100.00;100460.44;4924684;28;100921;-60
2021/03/16 10:37:21;;;;;;;3.07;2.20;;;6.90;99.90;;;3.99;100.00;100461.03;4924383;28;101507;-60
2021/03/16 10:39:49;;;;;;;2.83;1.50;;;6.90;99.90;;;3.95;100.00;100465.72;4924972;28;100123;-60
2021/03/16 10:42:16;;;;;;;4.87;1.93;;;6.80;99.90;;;3.97;100.00;100458.50;4924659;28;100285;-60
2021/03/16 10:44:43;;;;;;;3.10;2.00;;;6.90;99.90;;;4.01;100.00;100466.22;4924520;28;101286;-60
2021/03/16 10:47:11;;;;;;;2.97;2.10;;;7.00;99.90;;;4.10;100.00;100461.09;4924114;28;100498;-61
2021/03/16 10:49:38;;;;;;;4.43;1.60;;;6.90;99.90;;;4.15;100.00;100466.06;4925577;28;100094;-60
2021/03/16 10:52:05;;;;;;;2.43;1.30;;;7.00;99.90;;;3.81;100.00;100455.28;4924685;28;100149;-60
2021/03/16 10:54:33;;;;;;;2.70;1.60;;;7.00;99.90;;;4.00;100.00;100459.22;4924677;28;100683;-60
2021/03/16 10:56:59;;;;;;;3.30;2.03;;;7.00;99.90;;;4.24;100.00;100460.06;4924061;28;100526;-61
2021/03/16 10:59:26;;;;;;;3.93;1.93;;;7.00;99.90;;;4.32;100.00;100465.66;4925030;28;100106;-61
2021/03/16 11:01:53;;;;;;;3.40;1.60;;;7.10;99.90;;;4.36;100.00;100447.72;4924114;28;100103;-62
2021/03/16 11:04:21;;;;;;;4.43;1.90;;;7.20;99.90;;;4.57;100.00;100460.22;4924065;28;101682;-62
2021/03/16 11:06:47;;;;;;;3.17;1.80;;;7.40;99.90;;;4.55;100.00;100453.34;4924146;28;100638;-62
2021/03/16 11:09:15;;;;;;;4.77;2.10;;;7.50;99.90;;;5.19;100.00;100451.91;4924577;28;100543;-62
2021/03/16 11:11:42;;;;;;;3.83;1.70;;;7.70;99.90;;;5.30;100.00;100464.31;4923863;28;100387;-63